createdAt,value
2023-04-22T09:04:14.055Z,18.50
2023-04-22T09:06:40.901Z,17.10
2023-04-22T09:09:08.878Z,17.10
2023-04-22T09:11:36.252Z,17.30
2023-04-22T09:14:06.644Z,17.30
2023-04-22T09:16:42.976Z,17.30
2023-04-22T09:19:13.775Z,17.40
2023-04-22T09:21:41.409Z,17.40
2023-04-22T09:24:10.719Z,17.40
2023-04-22T09:26:42.277Z,17.60
2023-04-22T09:29:14.432Z,17.80
2023-04-22T09:31:41.426Z,18.00
2023-04-22T09:34:08.981Z,17.80
2023-04-22T09:36:37.836Z,17.90
2023-04-22T09:39:08.852Z,18.10
2023-04-22T09:41:36.750Z,18.40
2023-04-22T09:44:04.748Z,18.30
2023-04-22T09:46:33.884Z,18.40
2023-04-22T09:49:00.886Z,18.40
2023-04-22T09:51:28.588Z,18.60
2023-04-22T09:54:04.226Z,18.50
2023-04-22T09:56:49.419Z,18.70
2023-04-22T09:59:22.027Z,18.70
2023-04-22T10:01:49.883Z,18.60
2023-04-22T10:04:21.366Z,18.80
2023-04-22T10:06:49.184Z,18.80
2023-04-22T10:09:20.456Z,19.10
2023-04-22T10:11:49.371Z,19.10
2023-04-22T10:14:16.345Z,19.50
2023-04-22T10:16:47.873Z,19.50
2023-04-22T10:19:21.711Z,19.40
2023-04-22T10:21:52.272Z,19.20
2023-04-22T10:24:19.755Z,19.40
2023-04-22T10:26:59.823Z,19.50
2023-04-22T10:29:34.846Z,19.90
2023-04-22T10:32:17.435Z,20.00
2023-04-22T10:34:48.178Z,20.00
2023-04-22T10:37:18.851Z,20.40
2023-04-22T10:40:16.040Z,20.40
2023-04-22T10:42:49.161Z,20.60
2023-04-22T10:45:16.026Z,20.40
2023-04-22T10:47:43.636Z,20.30
2023-04-22T10:50:21.754Z,20.40
2023-04-22T10:52:52.873Z,20.90
2023-04-22T11:02:51.840Z,20.90
2023-04-22T11:05:25.954Z,21.70
2023-04-22T11:07:55.881Z,21.70
2023-04-22T15:50:38.869Z,21.80
2023-04-22T15:53:06.691Z,17.40
2023-04-22T15:55:33.349Z,17.30
2023-04-22T15:58:00.549Z,17.20
2023-04-22T16:00:27.338Z,17.20
